sensor_id;sensor_type;location;lat;lon;timestamp;P1;durP1;ratioP1;P2;durP2;ratioP2
66751;SDS011;53663;42.676;23.238;2024-02-26T00:01:23;28.80;;;17.35;;
66751;SDS011;53663;42.676;23.238;2024-02-26T00:03:49;28.80;;;16.77;;
66751;SDS011;53663;42.676;23.238;2024-02-26T00:06:15;28.20;;;16.02;;
66751;SDS011;53663;42.676;23.238;2024-02-26T00:08:40;27.65;;;16.63;;
66751;SDS011;53663;42.676;23.238;2024-02-26T00:11:06;26.80;;;17.02;;
66751;SDS011;53663;42.676;23.238;2024-02-26T00:13:31;30.98;;;17.80;;
66751;SDS011;53663;42.676;23.238;2024-02-26T00:15:57;36.67;;;19.08;;
66751;SDS011;53663;42.676;23.238;2024-02-26T00:18:22;28.02;;;18.20;;
66751;SDS011;53663;42.676;23.238;2024-02-26T00:20:48;30.88;;;18.88;;
66751;SDS011;53663;42.676;23.238;2024-02-26T00:23:16;43.67;;;25.92;;
66751;SDS011;53663;42.676;23.238;2024-02-26T00:25:42;43.13;;;23.98;;
66751;SDS011;53663;42.676;23.238;2024-02-26T00:28:08;34.67;;;20.48;;
66751;SDS011;53663;42.676;23.238;2024-02-26T00:30:35;39.42;;;21.75;;
66751;SDS011;53663;42.676;23.238;2024-02-26T00:33:00;34.63;;;22.60;;
66751;SDS011;53663;42.676;23.238;2024-02-26T00:35:26;35.20;;;21.83;;
66751;SDS011;53663;42.676;23.238;2024-02-26T00:37:51;31.38;;;20.10;;
66751;SDS011;53663;42.676;23.238;2024-02-26T00:40:17;32.00;;;19.27;;
66751;SDS011;53663;42.676;23.238;2024-02-26T00:42:42;35.97;;;20.38;;
66751;SDS011;53663;42.676;23.238;2024-02-26T00:45:11;33.80;;;19.45;;
66751;SDS011;53663;42.676;23.238;2024-02-26T00:47:37;32.78;;;19.27;;
66751;SDS011;53663;42.676;23.238;2024-02-26T00:50:03;30.63;;;18.77;;
66751;SDS011;53663;42.676;23.238;2024-02-26T00:52:28;36.53;;;18.65;;
66751;SDS011;53663;42.676;23.238;2024-02-26T00:54:54;28.73;;;18.30;;
66751;SDS011;53663;42.676;23.238;2024-02-26T00:57:19;29.73;;;18.15;;
66751;SDS011;53663;42.676;23.238;2024-02-26T00:59:45;30.17;;;17.02;;
66751;SDS011;53663;42.676;23.238;2024-02-26T01:02:10;26.60;;;17.33;;
66751;SDS011;53663;42.676;23.238;2024-02-26T01:04:36;26.95;;;16.17;;
66751;SDS011;53663;42.676;23.238;2024-02-26T01:07:02;31.20;;;17.55;;
66751;SDS011;53663;42.676;23.238;2024-02-26T01:09:28;30.42;;;18.02;;
66751;SDS011;53663;42.676;23.238;2024-02-26T01:11:53;30.95;;;17.77;;
66751;SDS011;53663;42.676;23.238;2024-02-26T01:14:19;27.60;;;16.95;;
66751;SDS011;53663;42.676;23.238;2024-02-26T01:16:44;30.38;;;17.08;;
66751;SDS011;53663;42.676;23.238;2024-02-26T01:19:10;30.88;;;17.88;;
66751;SDS011;53663;42.676;23.238;2024-02-26T01:21:35;30.75;;;17.67;;
66751;SDS011;53663;42.676;23.238;2024-02-26T01:24:01;28.00;;;16.80;;
66751;SDS011;53663;42.676;23.238;2024-02-26T01:26:26;26.90;;;16.90;;
66751;SDS011;53663;42.676;23.238;2024-02-26T01:28:52;29.52;;;16.90;;
66751;SDS011;53663;42.676;23.238;2024-02-26T01:31:17;26.50;;;17.75;;
66751;SDS011;53663;42.676;23.238;2024-02-26T01:33:43;32.65;;;18.67;;
66751;SDS011;53663;42.676;23.238;2024-02-26T01:36:08;36.00;;;20.45;;
66751;SDS011;53663;42.676;23.238;2024-02-26T01:38:34;32.42;;;19.40;;
66751;SDS011;53663;42.676;23.238;2024-02-26T01:40:59;27.35;;;17.38;;
66751;SDS011;53663;42.676;23.238;2024-02-26T01:43:25;29.55;;;17.58;;
66751;SDS011;53663;42.676;23.238;2024-02-26T01:45:51;30.60;;;19.60;;
66751;SDS011;53663;42.676;23.238;2024-02-26T01:48:16;36.38;;;22.67;;
66751;SDS011;53663;42.676;23.238;2024-02-26T01:50:42;43.92;;;22.33;;
66751;SDS011;53663;42.676;23.238;2024-02-26T01:53:07;34.63;;;20.45;;
66751;SDS011;53663;42.676;23.238;2024-02-26T01:55:34;34.78;;;20.33;;
66751;SDS011;53663;42.676;23.238;2024-02-26T01:58:00;31.48;;;19.90;;
66751;SDS011;53663;42.676;23.238;2024-02-26T02:00:25;36.42;;;20.02;;
66751;SDS011;53663;42.676;23.238;2024-02-26T02:02:51;35.72;;;18.30;;
66751;SDS011;53663;42.676;23.238;2024-02-26T02:05:17;28.17;;;17.67;;
66751;SDS011;53663;42.676;23.238;2024-02-26T02:07:45;27.50;;;17.60;;
66751;SDS011;53663;42.676;23.238;2024-02-26T02:10:11;30.70;;;18.40;;
66751;SDS011;53663;42.676;23.238;2024-02-26T02:12:37;31.60;;;18.17;;
66751;SDS011;53663;42.676;23.238;2024-02-26T02:15:05;30.13;;;18.52;;
66751;SDS011;53663;42.676;23.238;2024-02-26T02:17:31;27.08;;;18.30;;
66751;SDS011;53663;42.676;23.238;2024-02-26T02:19:57;29.08;;;17.75;;
66751;SDS011;53663;42.676;23.238;2024-02-26T02:22:22;26.48;;;18.30;;
66751;SDS011;53663;42.676;23.238;2024-02-26T02:24:48;28.08;;;18.50;;
66751;SDS011;53663;42.676;23.238;2024-02-26T02:27:16;27.58;;;18.15;;
66751;SDS011;53663;42.676;23.238;2024-02-26T02:29:41;26.63;;;18.10;;
66751;SDS011;53663;42.676;23.238;2024-02-26T02:32:07;34.35;;;18.67;;
66751;SDS011;53663;42.676;23.238;2024-02-26T02:34:33;27.67;;;17.90;;
66751;SDS011;53663;42.676;23.238;2024-02-26T02:36:59;26.00;;;17.45;;
66751;SDS011;53663;42.676;23.238;2024-02-26T02:39:25;26.98;;;17.90;;
66751;SDS011;53663;42.676;23.238;2024-02-26T02:41:50;29.02;;;18.25;;
66751;SDS011;53663;42.676;23.238;2024-02-26T02:44:16;30.65;;;19.92;;
66751;SDS011;53663;42.676;23.238;2024-02-26T02:46:41;45.58;;;27.67;;
66751;SDS011;53663;42.676;23.238;2024-02-26T02:49:08;44.95;;;26.73;;
66751;SDS011;53663;42.676;23.238;2024-02-26T02:51:35;31.83;;;19.67;;
66751;SDS011;53663;42.676;23.238;2024-02-26T02:54:00;35.72;;;19.88;;
66751;SDS011;53663;42.676;23.238;2024-02-26T02:56:26;31.15;;;19.98;;
66751;SDS011;53663;42.676;23.238;2024-02-26T02:58:52;33.95;;;20.02;;
66751;SDS011;53663;42.676;23.238;2024-02-26T03:01:17;39.50;;;21.00;;
66751;SDS011;53663;42.676;23.238;2024-02-26T03:03:43;30.92;;;20.17;;
66751;SDS011;53663;42.676;23.238;2024-02-26T03:06:08;28.80;;;19.13;;
66751;SDS011;53663;42.676;23.238;2024-02-26T03:08:34;33.65;;;19.50;;
66751;SDS011;53663;42.676;23.238;2024-02-26T03:11:03;32.00;;;19.20;;
66751;SDS011;53663;42.676;23.238;2024-02-26T03:13:29;29.50;;;18.40;;
66751;SDS011;53663;42.676;23.238;2024-02-26T03:15:55;29.48;;;19.33;;
66751;SDS011;53663;42.676;23.238;2024-02-26T03:18:20;30.58;;;18.85;;
66751;SDS011;53663;42.676;23.238;2024-02-26T03:20:46;24.90;;;17.40;;
66751;SDS011;53663;42.676;23.238;2024-02-26T03:23:11;26.38;;;16.90;;
66751;SDS011;53663;42.676;23.238;2024-02-26T03:25:41;28.73;;;16.05;;
66751;SDS011;53663;42.676;23.238;2024-02-26T03:28:07;27.05;;;17.23;;
66751;SDS011;53663;42.676;23.238;2024-02-26T03:30:32;27.73;;;16.88;;
66751;SDS011;53663;42.676;23.238;2024-02-26T03:32:58;26.77;;;16.95;;
66751;SDS011;53663;42.676;23.238;2024-02-26T03:35:23;26.88;;;17.58;;
66751;SDS011;53663;42.676;23.238;2024-02-26T03:37:49;30.98;;;18.58;;
66751;SDS011;53663;42.676;23.238;2024-02-26T03:40:16;36.25;;;18.95;;
66751;SDS011;53663;42.676;23.238;2024-02-26T03:42:44;29.27;;;19.63;;
66751;SDS011;53663;42.676;23.238;2024-02-26T03:45:10;28.25;;;19.52;;
66751;SDS011;53663;42.676;23.238;2024-02-26T03:47:37;30.30;;;19.58;;
66751;SDS011;53663;42.676;23.238;2024-02-26T03:50:03;29.95;;;18.95;;
66751;SDS011;53663;42.676;23.238;2024-02-26T03:52:30;30.38;;;19.50;;
66751;SDS011;53663;42.676;23.238;2024-02-26T03:54:55;31.13;;;19.27;;
66751;SDS011;53663;42.676;23.238;2024-02-26T03:57:21;28.70;;;18.50;;
66751;SDS011;53663;42.676;23.238;2024-02-26T03:59:46;32.83;;;18.08;;
66751;SDS011;53663;42.676;23.238;2024-02-26T04:02:11;28.13;;;18.42;;
66751;SDS011;53663;42.676;23.238;2024-02-26T04:04:37;25.58;;;18.35;;
66751;SDS011;53663;42.676;23.238;2024-02-26T04:07:02;25.23;;;17.25;;
66751;SDS011;53663;42.676;23.238;2024-02-26T04:09:28;28.08;;;16.90;;
66751;SDS011;53663;42.676;23.238;2024-02-26T04:11:56;29.83;;;17.55;;
66751;SDS011;53663;42.676;23.238;2024-02-26T04:14:22;35.85;;;19.98;;
66751;SDS011;53663;42.676;23.238;2024-02-26T04:16:47;32.78;;;17.92;;
66751;SDS011;53663;42.676;23.238;2024-02-26T04:19:16;36.95;;;19.15;;
66751;SDS011;53663;42.676;23.238;2024-02-26T04:21:42;34.90;;;19.17;;
66751;SDS011;53663;42.676;23.238;2024-02-26T04:24:08;32.10;;;19.10;;
66751;SDS011;53663;42.676;23.238;2024-02-26T04:26:34;28.27;;;17.83;;
66751;SDS011;53663;42.676;23.238;2024-02-26T04:29:00;33.60;;;18.85;;
66751;SDS011;53663;42.676;23.238;2024-02-26T04:31:25;39.78;;;20.80;;
66751;SDS011;53663;42.676;23.238;2024-02-26T04:33:54;34.25;;;18.55;;
66751;SDS011;53663;42.676;23.238;2024-02-26T04:36:19;35.40;;;18.88;;
66751;SDS011;53663;42.676;23.238;2024-02-26T04:38:45;37.08;;;19.58;;
66751;SDS011;53663;42.676;23.238;2024-02-26T04:41:10;36.85;;;20.65;;
66751;SDS011;53663;42.676;23.238;2024-02-26T04:43:37;46.83;;;21.00;;
66751;SDS011;53663;42.676;23.238;2024-02-26T04:46:09;41.10;;;21.40;;
66751;SDS011;53663;42.676;23.238;2024-02-26T04:48:35;48.70;;;23.77;;
66751;SDS011;53663;42.676;23.238;2024-02-26T04:51:01;45.90;;;23.70;;
66751;SDS011;53663;42.676;23.238;2024-02-26T04:53:27;41.40;;;22.52;;
66751;SDS011;53663;42.676;23.238;2024-02-26T04:55:53;37.25;;;20.75;;
66751;SDS011;53663;42.676;23.238;2024-02-26T04:58:18;35.03;;;21.27;;
66751;SDS011;53663;42.676;23.238;2024-02-26T05:00:44;37.58;;;19.95;;
66751;SDS011;53663;42.676;23.238;2024-02-26T05:03:09;35.17;;;20.17;;
66751;SDS011;53663;42.676;23.238;2024-02-26T05:05:38;37.67;;;20.33;;
66751;SDS011;53663;42.676;23.238;2024-02-26T05:08:05;42.63;;;20.52;;
66751;SDS011;53663;42.676;23.238;2024-02-26T05:10:32;33.90;;;20.67;;
66751;SDS011;53663;42.676;23.238;2024-02-26T05:12:59;34.53;;;19.77;;
66751;SDS011;53663;42.676;23.238;2024-02-26T05:15:24;32.92;;;19.83;;
66751;SDS011;53663;42.676;23.238;2024-02-26T05:17:50;30.00;;;18.45;;
66751;SDS011;53663;42.676;23.238;2024-02-26T05:20:15;31.70;;;18.40;;
66751;SDS011;53663;42.676;23.238;2024-02-26T05:22:41;33.53;;;17.85;;
66751;SDS011;53663;42.676;23.238;2024-02-26T05:25:07;30.77;;;16.77;;
66751;SDS011;53663;42.676;23.238;2024-02-26T05:27:33;27.83;;;17.42;;
66751;SDS011;53663;42.676;23.238;2024-02-26T05:29:58;27.38;;;17.52;;
66751;SDS011;53663;42.676;23.238;2024-02-26T05:32:24;28.65;;;18.85;;
66751;SDS011;53663;42.676;23.238;2024-02-26T05:34:50;32.33;;;19.08;;
66751;SDS011;53663;42.676;23.238;2024-02-26T05:37:16;32.08;;;18.02;;
66751;SDS011;53663;42.676;23.238;2024-02-26T05:39:41;28.80;;;17.80;;
66751;SDS011;53663;42.676;23.238;2024-02-26T05:42:07;32.63;;;18.15;;
66751;SDS011;53663;42.676;23.238;2024-02-26T05:44:34;29.33;;;18.67;;
66751;SDS011;53663;42.676;23.238;2024-02-26T05:46:59;30.90;;;19.63;;
66751;SDS011;53663;42.676;23.238;2024-02-26T05:49:25;32.38;;;19.27;;
66751;SDS011;53663;42.676;23.238;2024-02-26T05:51:50;32.03;;;19.75;;
66751;SDS011;53663;42.676;23.238;2024-02-26T05:54:16;34.10;;;18.27;;
66751;SDS011;53663;42.676;23.238;2024-02-26T05:56:41;40.63;;;20.42;;
66751;SDS011;53663;42.676;23.238;2024-02-26T05:59:07;37.08;;;20.23;;
66751;SDS011;53663;42.676;23.238;2024-02-26T06:01:33;36.45;;;19.02;;
66751;SDS011;53663;42.676;23.238;2024-02-26T06:03:59;38.65;;;19.15;;
66751;SDS011;53663;42.676;23.238;2024-02-26T06:06:24;31.50;;;20.75;;
66751;SDS011;53663;42.676;23.238;2024-02-26T06:08:50;36.80;;;20.90;;
66751;SDS011;53663;42.676;23.238;2024-02-26T06:11:15;35.65;;;19.95;;
66751;SDS011;53663;42.676;23.238;2024-02-26T06:13:41;40.60;;;20.58;;
66751;SDS011;53663;42.676;23.238;2024-02-26T06:16:10;35.53;;;20.08;;
66751;SDS011;53663;42.676;23.238;2024-02-26T06:18:35;35.92;;;20.65;;
66751;SDS011;53663;42.676;23.238;2024-02-26T06:21:01;33.85;;;20.52;;
66751;SDS011;53663;42.676;23.238;2024-02-26T06:23:26;41.90;;;24.60;;
66751;SDS011;53663;42.676;23.238;2024-02-26T06:25:52;39.13;;;22.77;;
66751;SDS011;53663;42.676;23.238;2024-02-26T06:28:17;36.88;;;22.08;;
66751;SDS011;53663;42.676;23.238;2024-02-26T06:30:43;36.40;;;21.40;;
66751;SDS011;53663;42.676;23.238;2024-02-26T06:33:08;38.22;;;22.27;;
66751;SDS011;53663;42.676;23.238;2024-02-26T06:35:34;34.78;;;21.33;;
66751;SDS011;53663;42.676;23.238;2024-02-26T06:37:59;32.92;;;21.00;;
66751;SDS011;53663;42.676;23.238;2024-02-26T06:40:25;34.97;;;21.75;;
66751;SDS011;53663;42.676;23.238;2024-02-26T06:42:51;38.05;;;21.88;;
66751;SDS011;53663;42.676;23.238;2024-02-26T06:45:17;43.05;;;22.50;;
66751;SDS011;53663;42.676;23.238;2024-02-26T06:47:44;34.13;;;21.40;;
66751;SDS011;53663;42.676;23.238;2024-02-26T06:50:13;36.25;;;21.38;;
66751;SDS011;53663;42.676;23.238;2024-02-26T06:52:39;39.58;;;23.95;;
66751;SDS011;53663;42.676;23.238;2024-02-26T06:55:04;40.42;;;23.00;;
66751;SDS011;53663;42.676;23.238;2024-02-26T06:57:32;39.35;;;23.48;;
66751;SDS011;53663;42.676;23.238;2024-02-26T06:59:58;40.25;;;23.00;;
66751;SDS011;53663;42.676;23.238;2024-02-26T07:02:24;32.00;;;21.15;;
66751;SDS011;53663;42.676;23.238;2024-02-26T07:04:50;40.03;;;21.90;;
66751;SDS011;53663;42.676;23.238;2024-02-26T07:07:15;36.15;;;22.55;;
66751;SDS011;53663;42.676;23.238;2024-02-26T07:09:43;36.10;;;21.42;;
66751;SDS011;53663;42.676;23.238;2024-02-26T07:12:08;37.25;;;21.77;;
66751;SDS011;53663;42.676;23.238;2024-02-26T07:14:34;34.22;;;20.85;;
66751;SDS011;53663;42.676;23.238;2024-02-26T07:17:00;39.97;;;20.13;;
66751;SDS011;53663;42.676;23.238;2024-02-26T07:19:25;30.00;;;19.08;;
66751;SDS011;53663;42.676;23.238;2024-02-26T07:21:51;35.78;;;21.70;;
66751;SDS011;53663;42.676;23.238;2024-02-26T07:24:16;33.03;;;20.50;;
66751;SDS011;53663;42.676;23.238;2024-02-26T07:26:42;32.20;;;21.15;;
66751;SDS011;53663;42.676;23.238;2024-02-26T07:29:07;33.35;;;22.33;;
66751;SDS011;53663;42.676;23.238;2024-02-26T07:31:33;41.13;;;23.73;;
66751;SDS011;53663;42.676;23.238;2024-02-26T07:33:58;35.60;;;20.52;;
66751;SDS011;53663;42.676;23.238;2024-02-26T07:36:24;30.00;;;18.92;;
66751;SDS011;53663;42.676;23.238;2024-02-26T07:38:50;32.08;;;20.33;;
66751;SDS011;53663;42.676;23.238;2024-02-26T07:41:17;32.55;;;19.80;;
66751;SDS011;53663;42.676;23.238;2024-02-26T07:43:42;33.53;;;19.83;;
66751;SDS011;53663;42.676;23.238;2024-02-26T07:46:10;36.97;;;21.10;;
66751;SDS011;53663;42.676;23.238;2024-02-26T07:48:36;35.97;;;20.08;;
66751;SDS011;53663;42.676;23.238;2024-02-26T07:51:02;33.65;;;21.00;;
66751;SDS011;53663;42.676;23.238;2024-02-26T07:53:28;41.58;;;21.45;;
66751;SDS011;53663;42.676;23.238;2024-02-26T07:55:53;29.55;;;19.90;;
66751;SDS011;53663;42.676;23.238;2024-02-26T07:58:19;39.85;;;20.35;;
66751;SDS011;53663;42.676;23.238;2024-02-26T08:00:44;31.35;;;20.20;;
66751;SDS011;53663;42.676;23.238;2024-02-26T08:03:11;37.38;;;20.35;;
66751;SDS011;53663;42.676;23.238;2024-02-26T08:05:38;33.17;;;19.92;;
66751;SDS011;53663;42.676;23.238;2024-02-26T08:08:06;38.85;;;20.33;;
66751;SDS011;53663;42.676;23.238;2024-02-26T08:10:32;35.38;;;19.98;;
66751;SDS011;53663;42.676;23.238;2024-02-26T08:12:57;32.38;;;19.00;;
66751;SDS011;53663;42.676;23.238;2024-02-26T08:15:30;33.95;;;18.90;;
66751;SDS011;53663;42.676;23.238;2024-02-26T08:17:56;39.70;;;20.25;;
66751;SDS011;53663;42.676;23.238;2024-02-26T08:20:22;38.65;;;21.33;;
66751;SDS011;53663;42.676;23.238;2024-02-26T08:22:47;41.45;;;21.95;;
66751;SDS011;53663;42.676;23.238;2024-02-26T08:25:13;41.38;;;24.23;;
66751;SDS011;53663;42.676;23.238;2024-02-26T08:27:38;34.42;;;20.85;;
66751;SDS011;53663;42.676;23.238;2024-02-26T08:30:04;45.22;;;24.67;;
66751;SDS011;53663;42.676;23.238;2024-02-26T08:32:30;58.65;;;31.45;;
66751;SDS011;53663;42.676;23.238;2024-02-26T08:34:55;47.35;;;27.38;;
66751;SDS011;53663;42.676;23.238;2024-02-26T08:37:21;47.28;;;24.80;;
66751;SDS011;53663;42.676;23.238;2024-02-26T08:39:46;46.28;;;21.70;;
66751;SDS011;53663;42.676;23.238;2024-02-26T08:42:12;42.95;;;21.42;;
66751;SDS011;53663;42.676;23.238;2024-02-26T08:44:37;32.70;;;19.40;;
66751;SDS011;53663;42.676;23.238;2024-02-26T08:47:03;33.20;;;18.05;;
66751;SDS011;53663;42.676;23.238;2024-02-26T08:49:29;33.42;;;18.95;;
66751;SDS011;53663;42.676;23.238;2024-02-26T08:51:54;39.20;;;22.30;;
66751;SDS011;53663;42.676;23.238;2024-02-26T08:54:19;48.15;;;25.27;;
66751;SDS011;53663;42.676;23.238;2024-02-26T08:56:45;40.15;;;21.13;;
66751;SDS011;53663;42.676;23.238;2024-02-26T08:59:10;35.17;;;20.02;;
66751;SDS011;53663;42.676;23.238;2024-02-26T09:01:36;34.17;;;20.58;;
66751;SDS011;53663;42.676;23.238;2024-02-26T09:04:01;30.10;;;19.38;;
66751;SDS011;53663;42.676;23.238;2024-02-26T09:06:28;41.00;;;19.83;;
66751;SDS011;53663;42.676;23.238;2024-02-26T09:08:54;36.08;;;19.17;;
66751;SDS011;53663;42.676;23.238;2024-02-26T09:11:20;40.70;;;19.15;;
66751;SDS011;53663;42.676;23.238;2024-02-26T09:13:45;32.75;;;18.70;;
66751;SDS011;53663;42.676;23.238;2024-02-26T09:16:11;39.72;;;21.48;;
66751;SDS011;53663;42.676;23.238;2024-02-26T09:18:36;37.50;;;22.10;;
66751;SDS011;53663;42.676;23.238;2024-02-26T09:21:05;40.33;;;23.13;;
66751;SDS011;53663;42.676;23.238;2024-02-26T09:23:31;31.90;;;18.55;;
66751;SDS011;53663;42.676;23.238;2024-02-26T09:25:57;40.13;;;17.48;;
66751;SDS011;53663;42.676;23.238;2024-02-26T09:28:22;38.65;;;22.33;;
66751;SDS011;53663;42.676;23.238;2024-02-26T09:30:48;106.50;;;42.95;;
66751;SDS011;53663;42.676;23.238;2024-02-26T09:33:15;64.00;;;30.48;;
66751;SDS011;53663;42.676;23.238;2024-02-26T09:35:41;36.40;;;18.88;;
66751;SDS011;53663;42.676;23.238;2024-02-26T09:38:06;33.95;;;18.98;;
66751;SDS011;53663;42.676;23.238;2024-02-26T09:40:32;43.08;;;21.27;;
66751;SDS011;53663;42.676;23.238;2024-02-26T09:43:01;49.33;;;29.60;;
66751;SDS011;53663;42.676;23.238;2024-02-26T09:45:29;38.60;;;18.45;;
66751;SDS011;53663;42.676;23.238;2024-02-26T09:47:57;65.82;;;31.92;;
66751;SDS011;53663;42.676;23.238;2024-02-26T09:50:23;42.90;;;21.83;;
66751;SDS011;53663;42.676;23.238;2024-02-26T09:52:49;47.15;;;16.73;;
66751;SDS011;53663;42.676;23.238;2024-02-26T09:55:16;40.97;;;17.83;;
66751;SDS011;53663;42.676;23.238;2024-02-26T09:57:44;29.95;;;15.85;;
66751;SDS011;53663;42.676;23.238;2024-02-26T10:00:11;21.48;;;12.85;;
66751;SDS011;53663;42.676;23.238;2024-02-26T10:02:40;24.13;;;15.00;;
66751;SDS011;53663;42.676;23.238;2024-02-26T10:05:07;41.50;;;23.88;;
66751;SDS011;53663;42.676;23.238;2024-02-26T10:07:37;31.67;;;15.63;;
66751;SDS011;53663;42.676;23.238;2024-02-26T10:10:03;31.63;;;15.65;;
66751;SDS011;53663;42.676;23.238;2024-02-26T10:12:29;40.83;;;21.77;;
66751;SDS011;53663;42.676;23.238;2024-02-26T10:14:56;35.63;;;18.63;;
66751;SDS011;53663;42.676;23.238;2024-02-26T10:17:21;15.52;;;7.30;;
66751;SDS011;53663;42.676;23.238;2024-02-26T10:19:47;10.90;;;6.20;;
66751;SDS011;53663;42.676;23.238;2024-02-26T10:22:13;7.82;;;4.53;;
66751;SDS011;53663;42.676;23.238;2024-02-26T10:24:38;9.07;;;4.28;;
66751;SDS011;53663;42.676;23.238;2024-02-26T10:27:04;7.85;;;4.38;;
66751;SDS011;53663;42.676;23.238;2024-02-26T10:29:30;7.18;;;4.32;;
66751;SDS011;53663;42.676;23.238;2024-02-26T10:31:56;9.38;;;4.15;;
66751;SDS011;53663;42.676;23.238;2024-02-26T10:34:21;7.45;;;4.20;;
66751;SDS011;53663;42.676;23.238;2024-02-26T10:36:48;7.85;;;4.32;;
66751;SDS011;53663;42.676;23.238;2024-02-26T10:39:14;12.68;;;4.63;;
66751;SDS011;53663;42.676;23.238;2024-02-26T10:41:40;13.80;;;4.75;;
66751;SDS011;53663;42.676;23.238;2024-02-26T10:44:08;7.68;;;4.22;;
66751;SDS011;53663;42.676;23.238;2024-02-26T10:46:36;7.47;;;4.75;;
66751;SDS011;53663;42.676;23.238;2024-02-26T10:49:02;8.48;;;4.60;;
66751;SDS011;53663;42.676;23.238;2024-02-26T10:51:29;9.48;;;4.18;;
66751;SDS011;53663;42.676;23.238;2024-02-26T10:53:59;11.82;;;4.38;;
66751;SDS011;53663;42.676;23.238;2024-02-26T10:56:27;9.18;;;4.18;;
66751;SDS011;53663;42.676;23.238;2024-02-26T10:58:57;10.00;;;4.55;;
66751;SDS011;53663;42.676;23.238;2024-02-26T11:01:24;6.70;;;4.32;;
66751;SDS011;53663;42.676;23.238;2024-02-26T11:03:51;8.70;;;4.30;;
66751;SDS011;53663;42.676;23.238;2024-02-26T11:06:17;6.95;;;3.78;;
66751;SDS011;53663;42.676;23.238;2024-02-26T11:08:47;9.90;;;4.10;;
66751;SDS011;53663;42.676;23.238;2024-02-26T11:11:14;7.50;;;4.15;;
66751;SDS011;53663;42.676;23.238;2024-02-26T11:13:40;9.05;;;4.40;;
66751;SDS011;53663;42.676;23.238;2024-02-26T11:16:11;8.95;;;4.22;;
66751;SDS011;53663;42.676;23.238;2024-02-26T11:18:37;9.48;;;4.93;;
66751;SDS011;53663;42.676;23.238;2024-02-26T11:21:06;13.18;;;4.43;;
66751;SDS011;53663;42.676;23.238;2024-02-26T11:23:33;10.18;;;4.07;;
66751;SDS011;53663;42.676;23.238;2024-02-26T11:26:02;7.40;;;4.25;;
66751;SDS011;53663;42.676;23.238;2024-02-26T11:28:31;10.45;;;4.18;;
66751;SDS011;53663;42.676;23.238;2024-02-26T11:30:59;18.20;;;5.78;;
66751;SDS011;53663;42.676;23.238;2024-02-26T11:33:26;12.57;;;5.25;;
66751;SDS011;53663;42.676;23.238;2024-02-26T11:35:53;13.23;;;4.20;;
66751;SDS011;53663;42.676;23.238;2024-02-26T11:38:23;10.82;;;4.55;;
66751;SDS011;53663;42.676;23.238;2024-02-26T11:40:51;8.40;;;4.45;;
66751;SDS011;53663;42.676;23.238;2024-02-26T11:43:18;9.82;;;4.40;;
66751;SDS011;53663;42.676;23.238;2024-02-26T11:45:49;10.30;;;4.10;;
66751;SDS011;53663;42.676;23.238;2024-02-26T11:48:20;5.30;;;3.85;;
66751;SDS011;53663;42.676;23.238;2024-02-26T11:50:47;7.07;;;3.53;;
66751;SDS011;53663;42.676;23.238;2024-02-26T11:58:43;8.63;;;3.80;;
66751;SDS011;53663;42.676;23.238;2024-02-26T12:04:21;7.15;;;3.95;;
66751;SDS011;53663;42.676;23.238;2024-02-26T12:06:57;9.25;;;4.03;;
66751;SDS011;53663;42.676;23.238;2024-02-26T12:09:32;8.80;;;4.03;;
66751;SDS011;53663;42.676;23.238;2024-02-26T12:12:05;9.20;;;4.38;;
66751;SDS011;53663;42.676;23.238;2024-02-26T12:17:26;11.00;;;4.07;;
66751;SDS011;53663;42.676;23.238;2024-02-26T12:19:52;8.70;;;3.70;;
66751;SDS011;53663;42.676;23.238;2024-02-26T12:22:19;11.13;;;3.70;;
66751;SDS011;53663;42.676;23.238;2024-02-26T12:24:44;5.95;;;3.60;;
66751;SDS011;53663;42.676;23.238;2024-02-26T12:27:11;8.50;;;4.25;;
66751;SDS011;53663;42.676;23.238;2024-02-26T12:29:36;9.65;;;3.92;;
66751;SDS011;53663;42.676;23.238;2024-02-26T12:32:05;8.57;;;3.78;;
66751;SDS011;53663;42.676;23.238;2024-02-26T12:34:31;9.63;;;4.05;;
66751;SDS011;53663;42.676;23.238;2024-02-26T12:36:57;8.82;;;4.00;;
66751;SDS011;53663;42.676;23.238;2024-02-26T12:39:23;9.68;;;5.18;;
66751;SDS011;53663;42.676;23.238;2024-02-26T12:41:49;11.50;;;4.38;;
66751;SDS011;53663;42.676;23.238;2024-02-26T12:44:17;14.20;;;4.78;;
66751;SDS011;53663;42.676;23.238;2024-02-26T12:46:44;9.70;;;4.03;;
66751;SDS011;53663;42.676;23.238;2024-02-26T12:49:14;11.27;;;4.45;;
66751;SDS011;53663;42.676;23.238;2024-02-26T12:51:42;7.90;;;3.83;;
66751;SDS011;53663;42.676;23.238;2024-02-26T12:54:09;8.35;;;4.10;;
66751;SDS011;53663;42.676;23.238;2024-02-26T12:56:35;15.23;;;4.60;;
66751;SDS011;53663;42.676;23.238;2024-02-26T12:59:00;6.57;;;3.08;;
66751;SDS011;53663;42.676;23.238;2024-02-26T13:01:28;6.80;;;3.50;;
66751;SDS011;53663;42.676;23.238;2024-02-26T13:03:55;8.13;;;3.97;;
66751;SDS011;53663;42.676;23.238;2024-02-26T13:06:21;8.73;;;4.03;;
66751;SDS011;53663;42.676;23.238;2024-02-26T13:08:47;12.48;;;3.55;;
66751;SDS011;53663;42.676;23.238;2024-02-26T13:11:13;8.52;;;3.80;;
66751;SDS011;53663;42.676;23.238;2024-02-26T13:13:40;5.57;;;3.60;;
66751;SDS011;53663;42.676;23.238;2024-02-26T13:16:06;5.43;;;3.47;;
66751;SDS011;53663;42.676;23.238;2024-02-26T13:18:33;8.68;;;3.47;;
66751;SDS011;53663;42.676;23.238;2024-02-26T13:21:07;8.75;;;4.18;;
66751;SDS011;53663;42.676;23.238;2024-02-26T13:23:36;6.05;;;3.47;;
66751;SDS011;53663;42.676;23.238;2024-02-26T13:26:03;8.75;;;3.78;;
66751;SDS011;53663;42.676;23.238;2024-02-26T13:28:28;15.48;;;3.50;;
66751;SDS011;53663;42.676;23.238;2024-02-26T13:30:54;8.10;;;3.63;;
66751;SDS011;53663;42.676;23.238;2024-02-26T13:33:22;6.18;;;3.47;;
66751;SDS011;53663;42.676;23.238;2024-02-26T13:35:48;8.07;;;3.60;;
66751;SDS011;53663;42.676;23.238;2024-02-26T13:38:14;7.07;;;3.40;;
66751;SDS011;53663;42.676;23.238;2024-02-26T13:40:39;10.27;;;3.78;;
66751;SDS011;53663;42.676;23.238;2024-02-26T13:43:05;10.00;;;5.38;;
66751;SDS011;53663;42.676;23.238;2024-02-26T13:45:34;7.53;;;4.10;;
66751;SDS011;53663;42.676;23.238;2024-02-26T13:48:05;9.23;;;4.18;;
66751;SDS011;53663;42.676;23.238;2024-02-26T13:50:32;9.07;;;4.13;;
66751;SDS011;53663;42.676;23.238;2024-02-26T13:52:58;7.55;;;4.00;;
66751;SDS011;53663;42.676;23.238;2024-02-26T13:55:25;8.85;;;3.97;;
66751;SDS011;53663;42.676;23.238;2024-02-26T13:57:53;10.18;;;3.53;;
66751;SDS011;53663;42.676;23.238;2024-02-26T14:00:22;7.70;;;4.05;;
66751;SDS011;53663;42.676;23.238;2024-02-26T14:02:48;10.35;;;3.72;;
66751;SDS011;53663;42.676;23.238;2024-02-26T14:05:13;8.88;;;3.35;;
66751;SDS011;53663;42.676;23.238;2024-02-26T14:07:39;12.80;;;3.78;;
66751;SDS011;53663;42.676;23.238;2024-02-26T14:10:05;10.68;;;3.70;;
66751;SDS011;53663;42.676;23.238;2024-02-26T14:12:31;13.90;;;3.20;;
66751;SDS011;53663;42.676;23.238;2024-02-26T14:14:56;5.60;;;3.20;;
66751;SDS011;53663;42.676;23.238;2024-02-26T14:17:24;8.85;;;3.70;;
66751;SDS011;53663;42.676;23.238;2024-02-26T14:19:49;9.35;;;3.70;;